createdAt,value
2018-11-23T00:00:02.322Z,41.47
2018-11-23T00:05:06.501Z,37.00
2018-11-23T00:10:12.425Z,43.33
2018-11-23T00:15:20.815Z,43.57
2018-11-23T00:20:27.154Z,38.10
2018-11-23T00:25:37.589Z,38.80
2018-11-23T00:30:41.722Z,39.87
2018-11-23T00:35:45.824Z,34.97
2018-11-23T00:40:49.930Z,40.93
2018-11-23T00:45:54.038Z,44.77
2018-11-23T00:50:58.153Z,44.67
2018-11-23T00:56:02.295Z,38.83
2018-11-23T01:01:06.489Z,39.10
2018-11-23T01:06:10.614Z,39.67
2018-11-23T01:11:14.841Z,37.17
2018-11-23T01:16:18.995Z,37.50
2018-11-23T01:21:23.158Z,38.90
2018-11-23T01:26:27.301Z,39.13
2018-11-23T01:31:31.446Z,44.17
2018-11-23T01:36:35.637Z,44.53
2018-11-23T01:41:40.090Z,37.70
2018-11-23T01:46:44.197Z,37.50
2018-11-23T01:51:48.315Z,43.27
2018-11-23T01:56:52.434Z,38.13
2018-11-23T02:01:56.542Z,38.17
2018-11-23T02:07:00.649Z,43.10
2018-11-23T02:12:04.810Z,38.47
2018-11-23T02:17:08.948Z,40.77
2018-11-23T02:22:13.073Z,41.27
2018-11-23T02:27:17.490Z,42.37
2018-11-23T02:32:21.735Z,41.27
2018-11-23T02:37:25.872Z,37.77
2018-11-23T02:42:30.049Z,39.50
2018-11-23T02:47:34.182Z,41.07
2018-11-23T02:52:38.665Z,39.17
2018-11-23T02:57:42.790Z,44.43
2018-11-23T03:02:46.967Z,45.33
2018-11-23T03:07:51.104Z,41.37
2018-11-23T03:12:55.218Z,35.97
2018-11-23T03:17:59.430Z,44.73
2018-11-23T03:23:03.538Z,44.40
2018-11-23T03:28:07.679Z,49.80
2018-11-23T03:33:11.785Z,41.90
2018-11-23T03:38:15.895Z,34.10
2018-11-23T03:43:20.008Z,34.67
2018-11-23T03:48:24.107Z,38.50
2018-11-23T03:53:28.222Z,41.47
2018-11-23T03:58:32.406Z,35.90
2018-11-23T04:03:36.518Z,34.87
2018-11-23T04:08:40.667Z,37.57
2018-11-23T04:13:44.810Z,40.60
2018-11-23T04:18:48.918Z,45.73
2018-11-23T04:23:53.195Z,38.13
2018-11-23T04:28:57.354Z,46.27
2018-11-23T04:34:01.463Z,47.27
2018-11-23T04:39:07.538Z,42.10
2018-11-23T04:44:11.663Z,43.90
2018-11-23T04:49:15.791Z,46.43
2018-11-23T04:54:19.891Z,42.27
2018-11-23T04:59:23.994Z,30.23
2018-11-23T05:04:28.196Z,43.97
2018-11-23T05:09:32.298Z,43.03
2018-11-23T05:14:36.470Z,49.47
2018-11-23T05:19:40.657Z,45.67
2018-11-23T05:24:44.826Z,48.87
2018-11-23T05:29:49.080Z,45.73
2018-11-23T05:34:53.191Z,53.97
2018-11-23T05:39:57.354Z,46.03
2018-11-23T05:45:01.477Z,49.17
2018-11-23T05:50:08.055Z,50.43
2018-11-23T05:55:12.542Z,39.03
2018-11-23T06:00:23.072Z,47.07
2018-11-23T06:05:27.202Z,46.73
2018-11-23T06:10:30.991Z,41.13
2018-11-23T06:15:35.007Z,47.03
2018-11-23T06:20:39.111Z,48.37
2018-11-23T06:25:45.547Z,30.97
2018-11-23T06:30:49.361Z,47.67
2018-11-23T06:35:53.379Z,50.37
2018-11-23T06:40:57.510Z,40.13
2018-11-23T06:46:02.554Z,49.23
2018-11-23T06:51:07.050Z,49.87
2018-11-23T06:56:11.182Z,53.63
2018-11-23T07:01:15.318Z,56.63
2018-11-23T07:06:19.510Z,57.07
2018-11-23T07:11:23.623Z,45.20
2018-11-23T07:16:27.748Z,48.37
2018-11-23T07:21:31.894Z,45.70
2018-11-23T07:26:36.015Z,41.70
2018-11-23T07:31:40.182Z,45.87
2018-11-23T07:36:44.311Z,41.10
2018-11-23T07:41:59.740Z,39.10
2018-11-23T07:47:03.537Z,28.73
2018-11-23T07:52:07.883Z,39.87
2018-11-23T07:57:12.126Z,37.43
2018-11-23T08:02:16.246Z,39.83
2018-11-23T08:07:21.158Z,36.23
2018-11-23T08:12:24.702Z,36.60
2018-11-23T08:17:28.826Z,44.67
2018-11-23T08:22:32.953Z,38.13
2018-11-23T08:27:37.311Z,47.20
2018-11-23T08:32:41.514Z,44.47
2018-11-23T08:37:45.668Z,41.27
2018-11-23T08:42:50.569Z,45.40
2018-11-23T08:47:54.678Z,43.57
2018-11-23T08:52:58.559Z,41.97
2018-11-23T08:58:02.591Z,38.73
2018-11-23T09:03:06.795Z,43.67
2018-11-23T09:08:10.919Z,37.37
2018-11-23T09:13:14.785Z,34.33
2018-11-23T09:18:18.887Z,44.20
2018-11-23T09:23:23.280Z,43.80
2018-11-23T09:28:27.070Z,41.53
2018-11-23T09:33:31.099Z,51.37
2018-11-23T09:38:35.199Z,39.27
2018-11-23T09:43:39.326Z,41.17
2018-11-23T09:48:43.438Z,36.57
2018-11-23T09:53:47.579Z,44.07
2018-11-23T09:58:51.414Z,44.00
2018-11-23T10:03:55.494Z,44.73
2018-11-23T10:08:59.580Z,42.50
2018-11-23T10:14:03.742Z,40.93
2018-11-23T10:19:10.958Z,45.73
2018-11-23T10:24:15.149Z,34.30
2018-11-23T10:29:19.113Z,43.53
2018-11-23T10:34:22.843Z,41.37
2018-11-23T10:39:26.970Z,34.43
2018-11-23T10:44:31.103Z,37.93
2018-11-23T10:49:35.358Z,37.07
2018-11-23T10:54:39.243Z,32.90
2018-11-23T10:59:43.309Z,36.80
2018-11-23T11:04:52.579Z,41.40
2018-11-23T11:09:56.791Z,40.93
2018-11-23T11:15:00.614Z,41.03
2018-11-23T11:20:04.402Z,35.30
2018-11-23T11:25:09.570Z,30.87
2018-11-23T11:30:15.622Z,36.97
2018-11-23T11:35:19.818Z,34.37
2018-11-23T11:40:23.966Z,39.43
2018-11-23T11:45:28.091Z,33.83
2018-11-23T11:50:32.287Z,34.23
2018-11-23T11:55:36.405Z,31.87
2018-11-23T12:00:40.530Z,28.13
2018-11-23T12:05:44.656Z,32.73
2018-11-23T12:10:48.777Z,30.27
2018-11-23T12:15:52.883Z,30.17
2018-11-23T12:20:56.709Z,25.87
2018-11-23T12:26:00.495Z,24.00
2018-11-23T12:31:04.265Z,33.10
2018-11-23T12:36:08.303Z,30.43
2018-11-23T12:41:12.273Z,39.20
2018-11-23T12:46:16.487Z,33.90
2018-11-23T12:51:20.681Z,32.27
2018-11-23T12:56:24.385Z,34.90
2018-11-23T13:01:28.093Z,38.37
2018-11-23T13:06:31.798Z,34.37
2018-11-23T13:11:39.596Z,33.63
2018-11-23T13:16:43.698Z,28.67
2018-11-23T13:21:47.491Z,32.63
2018-11-23T13:26:51.217Z,32.73
2018-11-23T13:31:55.797Z,30.60
2018-11-23T13:37:00.067Z,34.27
2018-11-23T13:42:04.420Z,34.43
2018-11-23T13:47:08.631Z,32.10
2018-11-23T13:52:12.727Z,30.17
2018-11-23T13:57:16.842Z,31.77
2018-11-23T14:02:21.219Z,39.07
2018-11-23T14:07:25.446Z,33.27
2018-11-23T14:12:29.295Z,31.50
2018-11-23T14:17:33.345Z,36.13
2018-11-23T14:22:37.742Z,33.77
2018-11-23T14:27:42.265Z,33.90
2018-11-23T14:32:46.611Z,32.13
2018-11-23T14:37:51.478Z,31.60
2018-11-23T14:42:56.014Z,32.37
2018-11-23T14:48:03.282Z,28.33
2018-11-23T14:53:07.343Z,39.03
2018-11-23T14:58:11.543Z,32.57
2018-11-23T15:03:15.654Z,30.40
2018-11-23T15:08:20.010Z,35.73
2018-11-23T15:13:24.267Z,34.07
2018-11-23T15:18:28.547Z,31.20
2018-11-23T15:23:32.336Z,28.00
2018-11-23T15:28:36.382Z,29.37
2018-11-23T15:33:41.435Z,32.10
2018-11-23T15:38:45.263Z,36.40
2018-11-23T15:43:49.679Z,37.87
2018-11-23T15:48:53.485Z,36.10
2018-11-23T15:53:57.568Z,34.00
2018-11-23T15:59:01.369Z,35.67
2018-11-23T16:04:05.491Z,40.33
2018-11-23T16:09:12.752Z,38.37
2018-11-23T16:14:16.940Z,35.90
2018-11-23T16:19:20.785Z,35.40
2018-11-23T16:24:24.478Z,45.87
2018-11-23T16:29:28.634Z,40.80
2018-11-23T16:34:32.638Z,41.47
2018-11-23T16:39:36.634Z,43.63
2018-11-23T16:44:41.016Z,34.77
2018-11-23T16:49:45.473Z,37.13
2018-11-23T16:54:50.160Z,36.57
2018-11-23T16:59:54.889Z,37.17
2018-11-23T17:04:59.041Z,38.47
2018-11-23T17:10:03.470Z,41.70
2018-11-23T17:15:08.233Z,41.53
2018-11-23T17:20:14.653Z,42.03
2018-11-23T17:25:20.429Z,38.77
2018-11-23T17:30:26.732Z,38.90
2018-11-23T17:35:30.876Z,37.70
2018-11-23T17:40:37.871Z,39.27
2018-11-23T17:45:42.336Z,41.03
2018-11-23T17:50:46.809Z,35.90
2018-11-23T17:55:51.140Z,37.63
2018-11-23T18:00:55.553Z,34.83
2018-11-23T18:06:00.022Z,39.93
2018-11-23T18:11:04.123Z,39.60
2018-11-23T18:16:08.544Z,46.40
2018-11-23T18:21:13.208Z,42.43
2018-11-23T18:26:17.678Z,45.57
2018-11-23T18:31:22.199Z,41.93
2018-11-23T18:36:26.177Z,41.30
2018-11-23T18:41:30.537Z,45.67
2018-11-23T18:46:34.645Z,49.63
2018-11-23T18:51:39.034Z,50.23
2018-11-23T18:56:43.972Z,54.93
2018-11-23T19:01:48.138Z,44.67
2018-11-23T19:06:52.835Z,61.83
2018-11-23T19:11:56.669Z,42.27
2018-11-23T19:17:00.366Z,48.37
2018-11-23T19:22:04.827Z,53.47
2018-11-23T19:27:08.785Z,44.50
2018-11-23T19:32:13.296Z,45.60
2018-11-23T19:37:17.816Z,45.97
2018-11-23T19:42:21.806Z,44.53
2018-11-23T19:47:26.102Z,42.43
2018-11-23T19:52:30.728Z,45.47
2018-11-23T19:57:34.791Z,43.17
2018-11-23T20:02:39.163Z,38.20
2018-11-23T20:07:44.253Z,39.30
2018-11-23T20:12:49.861Z,32.43
2018-11-23T20:17:54.454Z,34.03
2018-11-23T20:22:58.778Z,38.23
2018-11-23T20:28:03.243Z,34.67
2018-11-23T20:33:07.985Z,39.50
2018-11-23T20:38:12.457Z,35.80
2018-11-23T20:43:16.990Z,36.03
2018-11-23T20:48:21.589Z,34.03
2018-11-23T20:53:26.088Z,29.03
2018-11-23T20:58:30.152Z,40.20
2018-11-23T21:03:34.639Z,34.63
2018-11-23T21:08:39.278Z,30.87
2018-11-23T21:13:43.739Z,29.90
2018-11-23T21:18:48.249Z,34.17
2018-11-23T21:23:52.798Z,29.70
2018-11-23T21:28:57.199Z,29.47
2018-11-23T21:34:01.827Z,31.37
2018-11-23T21:39:13.750Z,29.23
2018-11-23T21:44:14.033Z,28.20
2018-11-23T21:49:18.513Z,26.43
2018-11-23T21:54:23.023Z,23.87
2018-11-23T21:59:27.540Z,26.30
2018-11-23T22:04:32.114Z,22.10
2018-11-23T22:09:36.597Z,21.60
2018-11-23T22:14:41.065Z,24.33
2018-11-23T22:19:45.102Z,26.33
2018-11-23T22:24:49.456Z,28.70
2018-11-23T22:29:54.008Z,28.47
2018-11-23T22:34:58.505Z,29.43
2018-11-23T22:40:03.025Z,32.00
2018-11-23T22:45:09.660Z,26.93
2018-11-23T22:50:21.586Z,26.93
2018-11-23T22:55:25.747Z,24.97
2018-11-23T23:00:35.610Z,28.97
2018-11-23T23:05:42.466Z,27.57
2018-11-23T23:10:43.990Z,24.33
2018-11-23T23:15:48.148Z,25.53
2018-11-23T23:20:52.662Z,25.17
2018-11-23T23:25:56.881Z,25.23
2018-11-23T23:31:01.026Z,22.83
2018-11-23T23:36:05.179Z,23.70
2018-11-23T23:41:09.292Z,20.73
2018-11-23T23:46:13.423Z,19.87
2018-11-23T23:51:17.624Z,22.07
2018-11-23T23:56:21.692Z,18.73
